sensor_id;sensor_type;location;lat;lon;timestamp;temperature;humidity
71188;DHT22;58893;53.130;8.158;2022-12-15T00:01:48;-0.90;64.20
71188;DHT22;58893;53.130;8.158;2022-12-15T00:04:32;-0.90;63.80
71188;DHT22;58893;53.130;8.158;2022-12-15T00:07:16;-1.00;63.80
71188;DHT22;58893;53.130;8.158;2022-12-15T00:10:00;-0.90;63.50
71188;DHT22;58893;53.130;8.158;2022-12-15T00:12:44;-1.00;64.40
71188;DHT22;58893;53.130;8.158;2022-12-15T00:15:28;-0.90;63.20
71188;DHT22;58893;53.130;8.158;2022-12-15T00:18:12;-1.00;63.10
71188;DHT22;58893;53.130;8.158;2022-12-15T00:20:57;-1.00;63.20
71188;DHT22;58893;53.130;8.158;2022-12-15T00:23:41;-1.00;63.50
71188;DHT22;58893;53.130;8.158;2022-12-15T00:26:25;-1.00;63.60
71188;DHT22;58893;53.130;8.158;2022-12-15T00:29:09;-1.00;64.80
71188;DHT22;58893;53.130;8.158;2022-12-15T00:31:53;-1.00;63.50
71188;DHT22;58893;53.130;8.158;2022-12-15T00:34:37;-1.00;63.70
71188;DHT22;58893;53.130;8.158;2022-12-15T00:37:21;-1.00;63.60
71188;DHT22;58893;53.130;8.158;2022-12-15T00:40:06;-1.00;64.20
71188;DHT22;58893;53.130;8.158;2022-12-15T00:42:31;-1.00;66.40
71188;DHT22;58893;53.130;8.158;2022-12-15T00:44:58;-1.00;63.70
71188;DHT22;58893;53.130;8.158;2022-12-15T00:47:24;-1.00;63.70
71188;DHT22;58893;53.130;8.158;2022-12-15T00:49:50;-0.90;63.90
71188;DHT22;58893;53.130;8.158;2022-12-15T00:52:34;-1.00;65.30
71188;DHT22;58893;53.130;8.158;2022-12-15T00:55:18;-0.90;63.60
71188;DHT22;58893;53.130;8.158;2022-12-15T00:58:02;-0.90;63.70
71188;DHT22;58893;53.130;8.158;2022-12-15T01:00:47;-0.90;63.70
71188;DHT22;58893;53.130;8.158;2022-12-15T01:03:31;-0.90;63.80
71188;DHT22;58893;53.130;8.158;2022-12-15T01:06:16;-0.90;63.80
71188;DHT22;58893;53.130;8.158;2022-12-15T01:09:01;-0.90;63.80
71188;DHT22;58893;53.130;8.158;2022-12-15T01:11:46;-1.00;63.70
71188;DHT22;58893;53.130;8.158;2022-12-15T01:14:31;-0.90;63.90
71188;DHT22;58893;53.130;8.158;2022-12-15T01:17:16;-1.00;63.80
71188;DHT22;58893;53.130;8.158;2022-12-15T01:20:01;-1.00;63.70
71188;DHT22;58893;53.130;8.158;2022-12-15T01:22:49;-1.00;63.60
71188;DHT22;58893;53.130;8.158;2022-12-15T01:25:16;-1.00;63.50
71188;DHT22;58893;53.130;8.158;2022-12-15T01:27:43;-1.00;63.50
71188;DHT22;58893;53.130;8.158;2022-12-15T01:30:11;-1.00;63.60
71188;DHT22;58893;53.130;8.158;2022-12-15T01:32:37;-1.00;63.60
71188;DHT22;58893;53.130;8.158;2022-12-15T01:35:04;-1.00;63.60
71188;DHT22;58893;53.130;8.158;2022-12-15T01:37:30;-1.00;63.60
71188;DHT22;58893;53.130;8.158;2022-12-15T01:39:56;-1.00;63.70
71188;DHT22;58893;53.130;8.158;2022-12-15T01:42:40;-1.00;63.70
71188;DHT22;58893;53.130;8.158;2022-12-15T01:47:55;-1.00;63.70
71188;DHT22;58893;53.130;8.158;2022-12-15T01:50:23;-1.00;63.60
71188;DHT22;58893;53.130;8.158;2022-12-15T01:52:50;-1.00;63.70
71188;DHT22;58893;53.130;8.158;2022-12-15T01:55:18;-1.00;63.90
71188;DHT22;58893;53.130;8.158;2022-12-15T01:57:44;-1.00;63.90
71188;DHT22;58893;53.130;8.158;2022-12-15T02:00:12;-1.00;64.00
71188;DHT22;58893;53.130;8.158;2022-12-15T02:02:39;-1.10;63.70
71188;DHT22;58893;53.130;8.158;2022-12-15T02:05:05;-1.10;63.80
71188;DHT22;58893;53.130;8.158;2022-12-15T02:07:32;-1.10;64.10
71188;DHT22;58893;53.130;8.158;2022-12-15T02:09:59;-1.10;66.10
71188;DHT22;58893;53.130;8.158;2022-12-15T02:15:30;-1.00;63.80
71188;DHT22;58893;53.130;8.158;2022-12-15T02:25:53;-1.00;63.70
71188;DHT22;58893;53.130;8.158;2022-12-15T02:28:45;-1.10;63.70
71188;DHT22;58893;53.130;8.158;2022-12-15T02:31:24;-1.10;63.80
71188;DHT22;58893;53.130;8.158;2022-12-15T02:34:24;-1.00;63.90
71188;DHT22;58893;53.130;8.158;2022-12-15T02:36:58;-1.00;64.00
71188;DHT22;58893;53.130;8.158;2022-12-15T02:39:25;-1.00;64.00
71188;DHT22;58893;53.130;8.158;2022-12-15T02:41:51;-1.00;64.00
71188;DHT22;58893;53.130;8.158;2022-12-15T02:47:07;-1.00;64.00
71188;DHT22;58893;53.130;8.158;2022-12-15T02:57:22;-1.10;63.90
71188;DHT22;58893;53.130;8.158;2022-12-15T03:00:29;-1.10;63.80
71188;DHT22;58893;53.130;8.158;2022-12-15T03:02:50;-1.10;63.90
71188;DHT22;58893;53.130;8.158;2022-12-15T03:05:18;-1.10;63.90
71188;DHT22;58893;53.130;8.158;2022-12-15T03:07:44;-1.10;63.90
71188;DHT22;58893;53.130;8.158;2022-12-15T03:10:12;-1.10;64.00
71188;DHT22;58893;53.130;8.158;2022-12-15T03:12:38;-1.10;64.10
71188;DHT22;58893;53.130;8.158;2022-12-15T03:15:04;-1.10;64.10
71188;DHT22;58893;53.130;8.158;2022-12-15T03:17:30;-1.10;64.10
71188;DHT22;58893;53.130;8.158;2022-12-15T03:19:56;-1.10;64.10
71188;DHT22;58893;53.130;8.158;2022-12-15T03:22:21;-1.10;64.00
71188;DHT22;58893;53.130;8.158;2022-12-15T03:24:47;-1.10;64.00
71188;DHT22;58893;53.130;8.158;2022-12-15T03:27:13;-1.10;64.00
71188;DHT22;58893;53.130;8.158;2022-12-15T03:29:39;-1.10;64.10
71188;DHT22;58893;53.130;8.158;2022-12-15T03:32:04;-1.10;64.20
71188;DHT22;58893;53.130;8.158;2022-12-15T03:34:30;-1.10;64.40
71188;DHT22;58893;53.130;8.158;2022-12-15T03:36:56;-1.10;64.50
71188;DHT22;58893;53.130;8.158;2022-12-15T03:39:21;-1.10;64.30
71188;DHT22;58893;53.130;8.158;2022-12-15T03:41:47;-1.10;64.50
71188;DHT22;58893;53.130;8.158;2022-12-15T03:44:12;-1.00;64.60
71188;DHT22;58893;53.130;8.158;2022-12-15T03:46:38;-1.00;64.70
71188;DHT22;58893;53.130;8.158;2022-12-15T03:49:04;-1.00;64.80
71188;DHT22;58893;53.130;8.158;2022-12-15T03:51:29;-1.10;64.70
71188;DHT22;58893;53.130;8.158;2022-12-15T03:53:55;-1.00;64.90
71188;DHT22;58893;53.130;8.158;2022-12-15T03:56:23;-1.00;65.00
71188;DHT22;58893;53.130;8.158;2022-12-15T03:58:48;-1.00;65.10
71188;DHT22;58893;53.130;8.158;2022-12-15T04:03:46;-1.00;65.30
71188;DHT22;58893;53.130;8.158;2022-12-15T04:06:12;-1.00;65.30
71188;DHT22;58893;53.130;8.158;2022-12-15T04:08:37;-0.90;65.50
71188;DHT22;58893;53.130;8.158;2022-12-15T04:11:03;-0.90;65.60
71188;DHT22;58893;53.130;8.158;2022-12-15T04:13:28;-0.90;65.70
71188;DHT22;58893;53.130;8.158;2022-12-15T04:15:54;-0.90;65.70
71188;DHT22;58893;53.130;8.158;2022-12-15T04:18:20;-0.90;65.80
71188;DHT22;58893;53.130;8.158;2022-12-15T04:20:45;-0.90;65.80
71188;DHT22;58893;53.130;8.158;2022-12-15T04:23:11;-0.90;65.90
71188;DHT22;58893;53.130;8.158;2022-12-15T04:25:37;-0.90;65.80
71188;DHT22;58893;53.130;8.158;2022-12-15T04:28:22;-0.90;65.80
71188;DHT22;58893;53.130;8.158;2022-12-15T04:31:14;-0.90;65.90
71188;DHT22;58893;53.130;8.158;2022-12-15T04:34:02;-0.90;66.00
71188;DHT22;58893;53.130;8.158;2022-12-15T04:36:50;-0.90;65.80
71188;DHT22;58893;53.130;8.158;2022-12-15T04:39:36;-0.90;65.80
71188;DHT22;58893;53.130;8.158;2022-12-15T04:42:21;-0.90;65.70
71188;DHT22;58893;53.130;8.158;2022-12-15T04:45:07;-0.90;65.70
71188;DHT22;58893;53.130;8.158;2022-12-15T04:47:51;-0.90;65.40
71188;DHT22;58893;53.130;8.158;2022-12-15T04:50:35;-0.90;65.30
71188;DHT22;58893;53.130;8.158;2022-12-15T04:53:20;-1.00;65.20
71188;DHT22;58893;53.130;8.158;2022-12-15T04:56:12;-1.00;65.30
71188;DHT22;58893;53.130;8.158;2022-12-15T04:58:57;-1.00;65.40
71188;DHT22;58893;53.130;8.158;2022-12-15T05:01:41;-1.00;65.50
71188;DHT22;58893;53.130;8.158;2022-12-15T05:04:26;-1.00;65.40
71188;DHT22;58893;53.130;8.158;2022-12-15T05:07:10;-1.00;65.30
71188;DHT22;58893;53.130;8.158;2022-12-15T05:09:54;-1.00;65.30
71188;DHT22;58893;53.130;8.158;2022-12-15T05:12:38;-1.00;65.20
71188;DHT22;58893;53.130;8.158;2022-12-15T05:15:22;-1.00;65.20
71188;DHT22;58893;53.130;8.158;2022-12-15T05:18:06;-1.00;65.10
71188;DHT22;58893;53.130;8.158;2022-12-15T05:20:50;-1.00;65.00
71188;DHT22;58893;53.130;8.158;2022-12-15T05:23:34;-1.10;65.00
71188;DHT22;58893;53.130;8.158;2022-12-15T05:26:18;-1.10;65.00
71188;DHT22;58893;53.130;8.158;2022-12-15T05:29:03;-1.10;65.10
71188;DHT22;58893;53.130;8.158;2022-12-15T05:31:47;-1.10;65.20
71188;DHT22;58893;53.130;8.158;2022-12-15T05:34:30;-1.10;65.30
71188;DHT22;58893;53.130;8.158;2022-12-15T05:36:57;-1.10;65.30
71188;DHT22;58893;53.130;8.158;2022-12-15T05:39:24;-1.00;65.50
71188;DHT22;58893;53.130;8.158;2022-12-15T05:41:51;-1.00;65.50
71188;DHT22;58893;53.130;8.158;2022-12-15T05:44:17;-1.00;65.60
71188;DHT22;58893;53.130;8.158;2022-12-15T05:46:43;-1.00;65.60
71188;DHT22;58893;53.130;8.158;2022-12-15T05:49:12;-1.00;65.70
71188;DHT22;58893;53.130;8.158;2022-12-15T05:51:40;-1.00;65.70
71188;DHT22;58893;53.130;8.158;2022-12-15T05:54:07;-1.00;65.80
71188;DHT22;58893;53.130;8.158;2022-12-15T05:56:34;-1.00;65.80
71188;DHT22;58893;53.130;8.158;2022-12-15T05:58:59;-1.00;65.80
71188;DHT22;58893;53.130;8.158;2022-12-15T06:01:26;-1.00;65.90
71188;DHT22;58893;53.130;8.158;2022-12-15T06:03:51;-1.00;65.90
71188;DHT22;58893;53.130;8.158;2022-12-15T06:06:18;-1.00;65.90
71188;DHT22;58893;53.130;8.158;2022-12-15T06:08:43;-0.90;66.10
71188;DHT22;58893;53.130;8.158;2022-12-15T06:11:12;-0.90;66.20
71188;DHT22;58893;53.130;8.158;2022-12-15T06:13:38;-0.90;66.30
71188;DHT22;58893;53.130;8.158;2022-12-15T06:16:11;-0.90;66.30
71188;DHT22;58893;53.130;8.158;2022-12-15T06:18:42;-0.90;66.30
71188;DHT22;58893;53.130;8.158;2022-12-15T06:21:09;-0.90;66.30
71188;DHT22;58893;53.130;8.158;2022-12-15T06:23:36;-0.90;66.40
71188;DHT22;58893;53.130;8.158;2022-12-15T06:28:34;-0.90;66.50
71188;DHT22;58893;53.130;8.158;2022-12-15T06:31:02;-0.90;66.50
71188;DHT22;58893;53.130;8.158;2022-12-15T06:33:28;-0.90;66.50
71188;DHT22;58893;53.130;8.158;2022-12-15T06:35:55;-0.90;66.20
71188;DHT22;58893;53.130;8.158;2022-12-15T06:38:21;-0.90;66.30
71188;DHT22;58893;53.130;8.158;2022-12-15T06:40:57;-0.90;65.90
71188;DHT22;58893;53.130;8.158;2022-12-15T06:43:23;-0.90;65.90
71188;DHT22;58893;53.130;8.158;2022-12-15T06:45:49;-0.90;66.00
71188;DHT22;58893;53.130;8.158;2022-12-15T06:48:15;-0.90;65.90
71188;DHT22;58893;53.130;8.158;2022-12-15T06:50:40;-1.00;65.80
71188;DHT22;58893;53.130;8.158;2022-12-15T06:53:06;-1.00;66.00
71188;DHT22;58893;53.130;8.158;2022-12-15T06:55:32;-1.00;66.20
71188;DHT22;58893;53.130;8.158;2022-12-15T06:57:57;-1.00;66.40
71188;DHT22;58893;53.130;8.158;2022-12-15T07:00:23;-0.90;66.70
71188;DHT22;58893;53.130;8.158;2022-12-15T07:02:49;-0.90;66.90
71188;DHT22;58893;53.130;8.158;2022-12-15T07:05:15;-0.90;67.00
71188;DHT22;58893;53.130;8.158;2022-12-15T07:07:40;-0.90;67.10
71188;DHT22;58893;53.130;8.158;2022-12-15T07:10:06;-0.90;67.10
71188;DHT22;58893;53.130;8.158;2022-12-15T07:12:32;-0.90;67.10
71188;DHT22;58893;53.130;8.158;2022-12-15T07:14:58;-0.90;67.10
71188;DHT22;58893;53.130;8.158;2022-12-15T07:17:23;-0.90;67.10
71188;DHT22;58893;53.130;8.158;2022-12-15T07:19:49;-0.80;67.40
71188;DHT22;58893;53.130;8.158;2022-12-15T07:22:15;-0.80;67.50
71188;DHT22;58893;53.130;8.158;2022-12-15T07:24:40;-0.80;67.60
71188;DHT22;58893;53.130;8.158;2022-12-15T07:27:06;-0.80;67.80
71188;DHT22;58893;53.130;8.158;2022-12-15T07:29:31;-0.80;67.90
71188;DHT22;58893;53.130;8.158;2022-12-15T07:31:57;-0.80;68.50
71188;DHT22;58893;53.130;8.158;2022-12-15T07:34:25;-0.70;68.20
71188;DHT22;58893;53.130;8.158;2022-12-15T07:36:50;-0.70;68.30
71188;DHT22;58893;53.130;8.158;2022-12-15T07:39:16;-0.70;68.50
71188;DHT22;58893;53.130;8.158;2022-12-15T07:41:41;-0.60;68.60
71188;DHT22;58893;53.130;8.158;2022-12-15T07:44:07;-0.60;70.90
71188;DHT22;58893;53.130;8.158;2022-12-15T07:46:33;-0.30;71.70
71188;DHT22;58893;53.130;8.158;2022-12-15T07:48:58;-0.20;70.80
71188;DHT22;58893;53.130;8.158;2022-12-15T07:51:24;-0.10;70.10
71188;DHT22;58893;53.130;8.158;2022-12-15T07:53:50;-0.10;69.60
71188;DHT22;58893;53.130;8.158;2022-12-15T07:56:16;-0.10;69.30
71188;DHT22;58893;53.130;8.158;2022-12-15T07:58:42;-0.10;69.10
71188;DHT22;58893;53.130;8.158;2022-12-15T08:01:10;-0.10;69.10
71188;DHT22;58893;53.130;8.158;2022-12-15T08:03:37;-0.10;69.10
71188;DHT22;58893;53.130;8.158;2022-12-15T08:06:04;-0.10;69.10
71188;DHT22;58893;53.130;8.158;2022-12-15T08:08:30;-0.10;69.20
71188;DHT22;58893;53.130;8.158;2022-12-15T08:10:56;-0.10;69.30
71188;DHT22;58893;53.130;8.158;2022-12-15T08:13:21;0.00;69.40
71188;DHT22;58893;53.130;8.158;2022-12-15T08:15:52;0.00;69.40
71188;DHT22;58893;53.130;8.158;2022-12-15T08:18:18;0.00;69.60
71188;DHT22;58893;53.130;8.158;2022-12-15T08:20:44;0.00;69.60
71188;DHT22;58893;53.130;8.158;2022-12-15T08:23:10;0.00;69.60
71188;DHT22;58893;53.130;8.158;2022-12-15T08:25:35;0.10;69.80
71188;DHT22;58893;53.130;8.158;2022-12-15T08:28:01;0.10;69.90
71188;DHT22;58893;53.130;8.158;2022-12-15T08:30:27;0.10;70.00
71188;DHT22;58893;53.130;8.158;2022-12-15T08:32:53;0.20;70.40
71188;DHT22;58893;53.130;8.158;2022-12-15T08:35:18;0.20;70.10
71188;DHT22;58893;53.130;8.158;2022-12-15T08:37:44;0.20;70.10
71188;DHT22;58893;53.130;8.158;2022-12-15T08:40:10;0.30;70.30
71188;DHT22;58893;53.130;8.158;2022-12-15T08:42:36;0.40;71.50
71188;DHT22;58893;53.130;8.158;2022-12-15T08:45:03;0.50;71.70
71188;DHT22;58893;53.130;8.158;2022-12-15T08:47:29;0.70;71.10
71188;DHT22;58893;53.130;8.158;2022-12-15T08:49:55;0.80;70.40
71188;DHT22;58893;53.130;8.158;2022-12-15T08:52:21;0.80;69.80
71188;DHT22;58893;53.130;8.158;2022-12-15T08:54:47;0.80;69.50
71188;DHT22;58893;53.130;8.158;2022-12-15T08:57:13;0.80;69.30
71188;DHT22;58893;53.130;8.158;2022-12-15T08:59:39;0.80;69.10
71188;DHT22;58893;53.130;8.158;2022-12-15T09:02:04;0.80;69.10
71188;DHT22;58893;53.130;8.158;2022-12-15T09:04:30;0.80;72.60
71188;DHT22;58893;53.130;8.158;2022-12-15T09:06:56;1.00;71.10
71188;DHT22;58893;53.130;8.158;2022-12-15T09:09:21;1.20;70.60
71188;DHT22;58893;53.130;8.158;2022-12-15T09:11:48;1.60;73.40
71188;DHT22;58893;53.130;8.158;2022-12-15T09:14:14;2.40;73.00
71188;DHT22;58893;53.130;8.158;2022-12-15T09:16:40;3.50;69.70
71188;DHT22;58893;53.130;8.158;2022-12-15T09:19:06;4.60;65.80
71188;DHT22;58893;53.130;8.158;2022-12-15T09:21:32;5.50;61.70
71188;DHT22;58893;53.130;8.158;2022-12-15T09:23:59;6.10;58.40
71188;DHT22;58893;53.130;8.158;2022-12-15T09:26:31;6.40;56.00
71188;DHT22;58893;53.130;8.158;2022-12-15T09:28:57;6.40;54.80
71188;DHT22;58893;53.130;8.158;2022-12-15T09:31:25;6.40;54.30
71188;DHT22;58893;53.130;8.158;2022-12-15T09:33:54;6.20;53.80
71188;DHT22;58893;53.130;8.158;2022-12-15T09:36:20;6.00;55.10
71188;DHT22;58893;53.130;8.158;2022-12-15T09:38:46;5.90;55.30
71188;DHT22;58893;53.130;8.158;2022-12-15T09:52:15;5.50;54.50
71188;DHT22;58893;53.130;8.158;2022-12-15T09:54:42;5.30;54.90
71188;DHT22;58893;53.130;8.158;2022-12-15T10:08:00;4.10;57.30
71188;DHT22;58893;53.130;8.158;2022-12-15T10:10:55;3.90;57.80
71188;DHT22;58893;53.130;8.158;2022-12-15T10:16:01;3.60;59.10
71188;DHT22;58893;53.130;8.158;2022-12-15T10:18:53;3.40;59.60
71188;DHT22;58893;53.130;8.158;2022-12-15T10:21:21;3.30;60.20
71188;DHT22;58893;53.130;8.158;2022-12-15T10:23:50;3.10;60.80
71188;DHT22;58893;53.130;8.158;2022-12-15T10:26:21;3.00;61.20
71188;DHT22;58893;53.130;8.158;2022-12-15T10:33:56;2.80;63.00
71188;DHT22;58893;53.130;8.158;2022-12-15T10:36:25;2.70;63.30
71188;DHT22;58893;53.130;8.158;2022-12-15T10:38:51;2.60;63.80
71188;DHT22;58893;53.130;8.158;2022-12-15T10:41:19;2.60;64.40
71188;DHT22;58893;53.130;8.158;2022-12-15T10:43:48;2.60;64.70
71188;DHT22;58893;53.130;8.158;2022-12-15T10:46:28;2.50;65.20
71188;DHT22;58893;53.130;8.158;2022-12-15T10:51:35;2.50;66.40
71188;DHT22;58893;53.130;8.158;2022-12-15T10:54:10;2.40;66.70
71188;DHT22;58893;53.130;8.158;2022-12-15T10:56:49;2.40;67.20
71188;DHT22;58893;53.130;8.158;2022-12-15T10:59:23;2.40;67.60
71188;DHT22;58893;53.130;8.158;2022-12-15T11:01:50;2.30;67.90
71188;DHT22;58893;53.130;8.158;2022-12-15T11:04:30;2.30;68.20
71188;DHT22;58893;53.130;8.158;2022-12-15T11:06:58;2.30;68.50
71188;DHT22;58893;53.130;8.158;2022-12-15T11:09:36;2.30;68.80
71188;DHT22;58893;53.130;8.158;2022-12-15T11:12:17;2.30;69.20
71188;DHT22;58893;53.130;8.158;2022-12-15T11:15:01;2.30;70.10
71188;DHT22;58893;53.130;8.158;2022-12-15T11:17:39;2.30;69.80
71188;DHT22;58893;53.130;8.158;2022-12-15T11:20:14;2.30;70.10
71188;DHT22;58893;53.130;8.158;2022-12-15T11:22:47;2.30;70.40
71188;DHT22;58893;53.130;8.158;2022-12-15T11:27:56;2.30;70.90
71188;DHT22;58893;53.130;8.158;2022-12-15T11:30:56;2.30;71.10
71188;DHT22;58893;53.130;8.158;2022-12-15T11:33:19;2.30;71.30
71188;DHT22;58893;53.130;8.158;2022-12-15T11:38:34;2.40;71.90
71188;DHT22;58893;53.130;8.158;2022-12-15T11:46:42;2.40;72.80
71188;DHT22;58893;53.130;8.158;2022-12-15T12:09:28;2.60;74.50
71188;DHT22;58893;53.130;8.158;2022-12-15T12:17:13;2.70;74.90
71188;DHT22;58893;53.130;8.158;2022-12-15T12:19:50;2.80;75.10
71188;DHT22;58893;53.130;8.158;2022-12-15T12:22:26;2.80;75.30
71188;DHT22;58893;53.130;8.158;2022-12-15T12:25:03;2.80;75.30
71188;DHT22;58893;53.130;8.158;2022-12-15T12:30:12;2.90;75.60
71188;DHT22;58893;53.130;8.158;2022-12-15T12:35:22;2.90;75.90
71188;DHT22;58893;53.130;8.158;2022-12-15T12:37:56;3.00;76.00
71188;DHT22;58893;53.130;8.158;2022-12-15T12:46:02;3.00;76.20
71188;DHT22;58893;53.130;8.158;2022-12-15T12:48:56;3.10;76.30
71188;DHT22;58893;53.130;8.158;2022-12-15T12:51:33;3.10;76.30
71188;DHT22;58893;53.130;8.158;2022-12-15T12:54:01;3.10;76.40
71188;DHT22;58893;53.130;8.158;2022-12-15T12:56:43;3.20;76.60
71188;DHT22;58893;53.130;8.158;2022-12-15T13:05:02;3.30;76.50
71188;DHT22;58893;53.130;8.158;2022-12-15T13:07:38;3.30;76.40
71188;DHT22;58893;53.130;8.158;2022-12-15T13:12:53;3.30;76.00
71188;DHT22;58893;53.130;8.158;2022-12-15T13:20:34;3.40;75.90
71188;DHT22;58893;53.130;8.158;2022-12-15T13:44:38;3.40;75.10
71188;DHT22;58893;53.130;8.158;2022-12-15T13:47:16;3.40;75.00
71188;DHT22;58893;53.130;8.158;2022-12-15T13:50:10;3.40;74.90
71188;DHT22;58893;53.130;8.158;2022-12-15T13:52:51;3.40;74.80
71188;DHT22;58893;53.130;8.158;2022-12-15T13:55:23;3.40;74.60
71188;DHT22;58893;53.130;8.158;2022-12-15T13:58:15;3.40;74.60
71188;DHT22;58893;53.130;8.158;2022-12-15T14:00:55;3.40;74.40
71188;DHT22;58893;53.130;8.158;2022-12-15T14:03:22;3.40;74.30
71188;DHT22;58893;53.130;8.158;2022-12-15T14:05:55;3.40;74.20
71188;DHT22;58893;53.130;8.158;2022-12-15T14:08:23;3.50;74.20
71188;DHT22;58893;53.130;8.158;2022-12-15T14:10:50;3.40;74.10
71188;DHT22;58893;53.130;8.158;2022-12-15T14:13:28;3.40;74.00
71188;DHT22;58893;53.130;8.158;2022-12-15T14:16:17;3.40;74.00
71188;DHT22;58893;53.130;8.158;2022-12-15T14:18:44;3.40;73.80
71188;DHT22;58893;53.130;8.158;2022-12-15T14:21:22;3.40;73.70
71188;DHT22;58893;53.130;8.158;2022-12-15T14:23:47;3.40;73.70
71188;DHT22;58893;53.130;8.158;2022-12-15T14:26:14;3.40;73.60
71188;DHT22;58893;53.130;8.158;2022-12-15T14:28:46;3.40;73.50
71188;DHT22;58893;53.130;8.158;2022-12-15T14:31:22;3.40;73.50
71188;DHT22;58893;53.130;8.158;2022-12-15T14:33:57;3.40;73.50
71188;DHT22;58893;53.130;8.158;2022-12-15T14:36:25;3.40;73.50
71188;DHT22;58893;53.130;8.158;2022-12-15T14:38:59;3.30;73.30
71188;DHT22;58893;53.130;8.158;2022-12-15T14:41:34;3.30;73.30
71188;DHT22;58893;53.130;8.158;2022-12-15T14:44:45;3.30;73.30
71188;DHT22;58893;53.130;8.158;2022-12-15T14:46:52;3.30;73.30
71188;DHT22;58893;53.130;8.158;2022-12-15T14:49:21;3.30;73.20
71188;DHT22;58893;53.130;8.158;2022-12-15T14:51:51;3.30;73.20
71188;DHT22;58893;53.130;8.158;2022-12-15T14:54:48;3.30;73.20
71188;DHT22;58893;53.130;8.158;2022-12-15T14:57:20;3.20;73.10
71188;DHT22;58893;53.130;8.158;2022-12-15T14:59:47;3.20;73.10
71188;DHT22;58893;53.130;8.158;2022-12-15T15:02:20;3.20;73.10
71188;DHT22;58893;53.130;8.158;2022-12-15T15:05:04;3.20;73.00
71188;DHT22;58893;53.130;8.158;2022-12-15T15:07:33;3.20;73.00
71188;DHT22;58893;53.130;8.158;2022-12-15T15:10:00;3.10;72.90
71188;DHT22;58893;53.130;8.158;2022-12-15T15:12:42;3.10;73.00
71188;DHT22;58893;53.130;8.158;2022-12-15T15:15:14;3.10;72.90
71188;DHT22;58893;53.130;8.158;2022-12-15T15:17:53;3.10;73.00
71188;DHT22;58893;53.130;8.158;2022-12-15T15:20:23;3.10;72.90
71188;DHT22;58893;53.130;8.158;2022-12-15T15:28:19;3.00;72.80
71188;DHT22;58893;53.130;8.158;2022-12-15T15:30:56;3.00;72.80
71188;DHT22;58893;53.130;8.158;2022-12-15T15:33:24;3.00;72.90
71188;DHT22;58893;53.130;8.158;2022-12-15T15:36:01;3.00;72.80
71188;DHT22;58893;53.130;8.158;2022-12-15T15:38:28;2.90;72.70
71188;DHT22;58893;53.130;8.158;2022-12-15T15:40:55;2.90;72.70
71188;DHT22;58893;53.130;8.158;2022-12-15T15:43:23;2.90;72.80
71188;DHT22;58893;53.130;8.158;2022-12-15T15:45:59;2.90;72.80
71188;DHT22;58893;53.130;8.158;2022-12-15T15:48:29;2.90;73.40
71188;DHT22;58893;53.130;8.158;2022-12-15T15:50:56;2.90;72.80
71188;DHT22;58893;53.130;8.158;2022-12-15T15:53:24;2.80;72.70
71188;DHT22;58893;53.130;8.158;2022-12-15T15:55:53;2.80;72.60
71188;DHT22;58893;53.130;8.158;2022-12-15T15:58:18;2.80;72.60
71188;DHT22;58893;53.130;8.158;2022-12-15T16:00:44;2.80;72.60
71188;DHT22;58893;53.130;8.158;2022-12-15T16:03:10;2.80;72.50
71188;DHT22;58893;53.130;8.158;2022-12-15T16:05:36;2.80;72.60
71188;DHT22;58893;53.130;8.158;2022-12-15T16:08:03;2.80;72.50
71188;DHT22;58893;53.130;8.158;2022-12-15T16:10:29;2.80;72.60
71188;DHT22;58893;53.130;8.158;2022-12-15T16:12:57;2.80;72.50
71188;DHT22;58893;53.130;8.158;2022-12-15T16:15:26;2.70;72.50
71188;DHT22;58893;53.130;8.158;2022-12-15T16:17:53;2.70;72.40
71188;DHT22;58893;53.130;8.158;2022-12-15T16:20:20;2.70;72.40
71188;DHT22;58893;53.130;8.158;2022-12-15T16:22:50;2.70;72.40
71188;DHT22;58893;53.130;8.158;2022-12-15T16:25:37;2.70;72.40
71188;DHT22;58893;53.130;8.158;2022-12-15T16:28:10;2.70;72.30
71188;DHT22;58893;53.130;8.158;2022-12-15T16:30:36;2.70;72.30
71188;DHT22;58893;53.130;8.158;2022-12-15T16:33:02;2.70;72.30
71188;DHT22;58893;53.130;8.158;2022-12-15T16:35:28;2.60;72.20
71188;DHT22;58893;53.130;8.158;2022-12-15T16:37:54;2.60;72.30
71188;DHT22;58893;53.130;8.158;2022-12-15T16:40:24;2.60;72.40
71188;DHT22;58893;53.130;8.158;2022-12-15T16:42:56;2.60;72.50
71188;DHT22;58893;53.130;8.158;2022-12-15T16:45:24;2.60;72.60
71188;DHT22;58893;53.130;8.158;2022-12-15T16:47:50;2.60;72.70
71188;DHT22;58893;53.130;8.158;2022-12-15T16:50:19;2.60;72.70
71188;DHT22;58893;53.130;8.158;2022-12-15T16:52:46;2.60;72.70
71188;DHT22;58893;53.130;8.158;2022-12-15T16:55:32;2.60;72.80
71188;DHT22;58893;53.130;8.158;2022-12-15T16:58:02;2.60;72.70
71188;DHT22;58893;53.130;8.158;2022-12-15T17:00:31;2.60;72.80
71188;DHT22;58893;53.130;8.158;2022-12-15T17:02:57;2.50;72.60
71188;DHT22;58893;53.130;8.158;2022-12-15T17:05:35;2.50;72.50
71188;DHT22;58893;53.130;8.158;2022-12-15T17:08:03;2.50;72.50
71188;DHT22;58893;53.130;8.158;2022-12-15T17:10:30;2.50;72.40
71188;DHT22;58893;53.130;8.158;2022-12-15T17:13:05;2.50;72.60
71188;DHT22;58893;53.130;8.158;2022-12-15T17:15:31;2.50;72.60
71188;DHT22;58893;53.130;8.158;2022-12-15T17:17:57;2.50;72.60
71188;DHT22;58893;53.130;8.158;2022-12-15T17:20:25;2.50;72.60
71188;DHT22;58893;53.130;8.158;2022-12-15T17:22:57;2.50;73.30
71188;DHT22;58893;53.130;8.158;2022-12-15T17:25:34;2.40;72.60
71188;DHT22;58893;53.130;8.158;2022-12-15T17:28:01;2.40;72.60
71188;DHT22;58893;53.130;8.158;2022-12-15T17:30:27;2.40;72.60
71188;DHT22;58893;53.130;8.158;2022-12-15T17:32:53;2.40;72.70
71188;DHT22;58893;53.130;8.158;2022-12-15T17:35:19;2.40;72.80
71188;DHT22;58893;53.130;8.158;2022-12-15T17:37:45;2.40;73.00
71188;DHT22;58893;53.130;8.158;2022-12-15T17:40:18;2.40;73.00
71188;DHT22;58893;53.130;8.158;2022-12-15T17:42:45;2.40;73.10
71188;DHT22;58893;53.130;8.158;2022-12-15T17:45:19;2.40;73.10
71188;DHT22;58893;53.130;8.158;2022-12-15T17:47:45;2.40;73.10
71188;DHT22;58893;53.130;8.158;2022-12-15T17:50:12;2.40;73.00
71188;DHT22;58893;53.130;8.158;2022-12-15T17:52:38;2.40;73.00
71188;DHT22;58893;53.130;8.158;2022-12-15T17:55:16;2.40;73.00
71188;DHT22;58893;53.130;8.158;2022-12-15T17:57:42;2.40;73.00
71188;DHT22;58893;53.130;8.158;2022-12-15T18:00:16;2.40;73.00
71188;DHT22;58893;53.130;8.158;2022-12-15T18:02:42;2.40;73.00
71188;DHT22;58893;53.130;8.158;2022-12-15T18:05:07;2.40;72.90
71188;DHT22;58893;53.130;8.158;2022-12-15T18:07:33;2.50;73.00
71188;DHT22;58893;53.130;8.158;2022-12-15T18:10:00;2.40;72.90
71188;DHT22;58893;53.130;8.158;2022-12-15T18:12:26;2.50;73.00
71188;DHT22;58893;53.130;8.158;2022-12-15T18:14:52;2.50;73.00
71188;DHT22;58893;53.130;8.158;2022-12-15T18:17:18;2.50;73.00
71188;DHT22;58893;53.130;8.158;2022-12-15T18:19:44;2.50;73.00
71188;DHT22;58893;53.130;8.158;2022-12-15T18:22:21;2.50;73.00
71188;DHT22;58893;53.130;8.158;2022-12-15T18:24:48;2.50;73.10
71188;DHT22;58893;53.130;8.158;2022-12-15T18:27:21;2.50;73.20
71188;DHT22;58893;53.130;8.158;2022-12-15T18:29:47;2.50;74.00
71188;DHT22;58893;53.130;8.158;2022-12-15T18:32:14;2.50;73.30
71188;DHT22;58893;53.130;8.158;2022-12-15T18:34:40;2.50;73.40
71188;DHT22;58893;53.130;8.158;2022-12-15T18:37:20;2.50;73.40